Powersville, Missouri
Current Conditions -  °F | °C
As of 8:30 PM on Sunday 21 Dec 2014 (Local Time) from KTVK Reporting Station
Overcast Overcast  
Wind Chill: 32°   Ceiling: 500
Heat Index: 39°   Visibility: 10mi
Dew Point: 39°   Wind: 10mph
Humidity: 100%   Direction: 140°SE
Pressure: 29.84"   Gusts: NA
Location:  40.55°N, 93.3°W
Report Text: KTVK 220230Z AUTO 14009KT 10SM OVC005 04/04 A2984 RMK AO2
Loading
Personal Weather Stations






























Interactive Weather Map New forecast layout! Learn more

10-Day Weather Forecast

Advertisements
Track Severe Weather on mobile